createdAt,value
2019-01-10T00:00:56.332Z,2.11
2019-01-10T00:03:25.459Z,2.04
2019-01-10T00:05:54.699Z,2.07
2019-01-10T00:08:23.786Z,2.14
2019-01-10T00:10:53.116Z,2.06
2019-01-10T00:13:24.435Z,2.07
2019-01-10T00:15:53.518Z,2.07
2019-01-10T00:18:22.719Z,2.00
2019-01-10T00:20:51.976Z,2.00
2019-01-10T00:23:21.295Z,1.98
2019-01-10T00:25:50.396Z,2.01
2019-01-10T00:28:19.519Z,1.89
2019-01-10T00:30:48.862Z,1.89
2019-01-10T00:33:17.969Z,1.88
2019-01-10T00:35:47.314Z,1.83
2019-01-10T00:38:16.432Z,1.86
2019-01-10T00:40:45.656Z,1.86
2019-01-10T00:43:14.874Z,1.83
2019-01-10T00:45:44.166Z,1.89
2019-01-10T00:48:13.262Z,1.81
2019-01-10T00:50:42.763Z,1.81
2019-01-10T00:53:11.824Z,1.93
2019-01-10T00:55:41.162Z,1.89
2019-01-10T00:58:10.225Z,1.85
2019-01-10T01:00:39.348Z,1.80
2019-01-10T01:03:08.905Z,1.80
2019-01-10T01:05:37.994Z,1.83
2019-01-10T01:08:07.168Z,1.84
2019-01-10T01:10:36.321Z,1.84
2019-01-10T01:13:05.687Z,1.83
2019-01-10T01:15:34.846Z,1.78
2019-01-10T01:18:04.100Z,1.73
2019-01-10T01:20:33.381Z,1.70
2019-01-10T01:23:02.617Z,1.70
2019-01-10T01:25:31.706Z,1.70
2019-01-10T01:28:01.076Z,1.73
2019-01-10T01:30:30.190Z,1.77
2019-01-10T01:32:59.478Z,1.77
2019-01-10T01:35:28.566Z,1.70
2019-01-10T01:37:57.731Z,1.64
2019-01-10T01:40:27.441Z,1.64
2019-01-10T01:42:56.621Z,1.65
2019-01-10T01:45:25.688Z,1.74
2019-01-10T01:47:54.777Z,1.74
2019-01-10T01:50:25.013Z,1.73
2019-01-10T01:52:54.341Z,1.69
2019-01-10T01:55:23.486Z,1.73
2019-01-10T01:57:52.550Z,1.73
2019-01-10T02:00:24.963Z,1.76
2019-01-10T02:02:54.048Z,1.72
2019-01-10T02:05:23.320Z,1.72
2019-01-10T02:07:53.315Z,1.71
2019-01-10T02:10:27.504Z,1.76
2019-01-10T02:12:56.704Z,1.72
2019-01-10T02:15:25.797Z,1.77
2019-01-10T02:17:55.248Z,1.75
2019-01-10T02:20:24.433Z,1.82
2019-01-10T02:22:53.467Z,1.79
2019-01-10T02:25:22.993Z,1.74
2019-01-10T02:27:52.045Z,1.74
2019-01-10T02:30:23.525Z,1.70
2019-01-10T02:32:52.670Z,1.69
2019-01-10T02:35:21.728Z,1.72
2019-01-10T02:37:50.807Z,1.70
2019-01-10T02:40:20.182Z,1.70
2019-01-10T02:42:49.320Z,1.66
2019-01-10T02:45:18.584Z,1.69
2019-01-10T02:47:47.740Z,1.64
2019-01-10T02:50:22.486Z,1.63
2019-01-10T02:52:51.566Z,1.64
2019-01-10T02:55:20.996Z,1.62
2019-01-10T02:57:50.457Z,1.60
2019-01-10T03:00:21.995Z,1.56
2019-01-10T03:02:51.079Z,1.56
2019-01-10T03:05:20.351Z,1.49
2019-01-10T03:07:49.617Z,1.55
2019-01-10T03:10:21.026Z,1.55
2019-01-10T03:12:50.100Z,1.49
2019-01-10T03:15:19.193Z,1.41
2019-01-10T03:17:48.343Z,1.41
2019-01-10T03:20:19.782Z,1.47
2019-01-10T03:22:48.879Z,1.43
2019-01-10T03:25:17.935Z,1.41
2019-01-10T03:27:47.122Z,1.42
2019-01-10T03:30:18.063Z,1.43
2019-01-10T03:32:47.423Z,1.44
2019-01-10T03:35:16.497Z,1.39
2019-01-10T03:37:45.827Z,1.45
2019-01-10T03:40:17.441Z,1.43
2019-01-10T03:42:46.545Z,1.38
2019-01-10T03:45:17.822Z,1.46
2019-01-10T03:47:46.924Z,1.49
2019-01-10T03:50:16.444Z,1.44
2019-01-10T03:52:47.943Z,1.44
2019-01-10T03:55:17.256Z,1.47
2019-01-10T03:57:46.343Z,1.47
2019-01-10T04:00:21.123Z,1.47
2019-01-10T04:02:51.056Z,1.47
2019-01-10T04:05:20.835Z,1.46
2019-01-10T04:07:50.171Z,1.46
2019-01-10T04:10:19.477Z,1.46
2019-01-10T04:12:48.503Z,1.44
2019-01-10T04:15:18.103Z,1.42
2019-01-10T04:17:47.233Z,1.41
2019-01-10T04:20:18.249Z,1.43
2019-01-10T04:22:47.619Z,1.41
2019-01-10T04:25:17.202Z,1.40
2019-01-10T04:27:46.425Z,1.45
2019-01-10T04:30:20.283Z,1.45
2019-01-10T04:32:49.549Z,1.43
2019-01-10T04:35:18.620Z,1.43
2019-01-10T04:37:47.748Z,1.44
2019-01-10T04:40:21.827Z,1.46
2019-01-10T04:42:50.900Z,1.48
2019-01-10T04:45:20.169Z,1.46
2019-01-10T04:47:49.661Z,1.46
2019-01-10T04:50:19.657Z,1.48
2019-01-10T04:52:48.923Z,1.48
2019-01-10T04:55:18.124Z,1.50
2019-01-10T04:57:47.434Z,1.50
2019-01-10T05:00:22.359Z,1.53
2019-01-10T05:02:51.878Z,1.50
2019-01-10T05:05:20.944Z,1.55
2019-01-10T05:07:50.073Z,1.54
2019-01-10T05:10:19.266Z,1.49
2019-01-10T05:12:48.376Z,1.49
2019-01-10T05:15:17.698Z,1.53
2019-01-10T05:17:46.967Z,1.55
2019-01-10T05:20:18.108Z,1.53
2019-01-10T05:22:47.422Z,1.57
2019-01-10T05:25:16.661Z,1.59
2019-01-10T05:27:45.733Z,1.61
2019-01-10T05:30:18.152Z,1.63
2019-01-10T05:32:47.474Z,1.62
2019-01-10T05:35:16.556Z,1.61
2019-01-10T05:37:45.678Z,1.61
2019-01-10T05:40:15.281Z,1.60
2019-01-10T05:42:44.392Z,1.63
2019-01-10T05:45:14.495Z,1.61
2019-01-10T05:47:43.598Z,1.70
2019-01-10T05:50:14.392Z,1.71
2019-01-10T05:52:43.795Z,1.70
2019-01-10T05:55:15.172Z,1.69
2019-01-10T05:57:44.269Z,1.66
2019-01-10T06:00:16.827Z,1.68
2019-01-10T06:02:45.939Z,1.69
2019-01-10T06:05:15.021Z,1.66
2019-01-10T06:07:44.150Z,1.66
2019-01-10T06:10:17.129Z,1.67
2019-01-10T06:12:46.354Z,1.72
2019-01-10T06:15:16.506Z,1.75
2019-01-10T06:17:45.852Z,1.75
2019-01-10T06:20:17.076Z,1.73
2019-01-10T06:22:46.149Z,1.73
2019-01-10T06:25:16.835Z,1.73
2019-01-10T06:27:45.963Z,1.76
2019-01-10T06:30:17.969Z,1.72
2019-01-10T06:32:47.151Z,1.72
2019-01-10T06:35:16.355Z,1.79
2019-01-10T06:37:45.579Z,1.76
2019-01-10T06:40:16.608Z,1.76
2019-01-10T06:42:45.737Z,1.79
2019-01-10T06:45:15.678Z,1.79
2019-01-10T06:47:44.766Z,1.81
2019-01-10T06:50:14.855Z,1.81
2019-01-10T06:52:43.946Z,1.78
2019-01-10T06:55:13.046Z,1.77
2019-01-10T06:57:42.362Z,1.74
2019-01-10T07:00:23.146Z,1.82
2019-01-10T07:02:52.765Z,1.84
2019-01-10T07:05:21.859Z,1.82
2019-01-10T07:07:56.179Z,1.79
2019-01-10T07:10:28.982Z,1.80
2019-01-10T07:12:58.094Z,1.81
2019-01-10T07:15:27.274Z,1.81
2019-01-10T07:17:56.348Z,1.81
2019-01-10T07:20:25.636Z,1.86
2019-01-10T07:22:56.022Z,1.86
2019-01-10T07:25:25.207Z,1.80
2019-01-10T07:27:56.579Z,1.85
2019-01-10T07:30:35.485Z,1.88
2019-01-10T07:32:58.407Z,1.84
2019-01-10T07:35:27.724Z,1.84
2019-01-10T07:37:57.404Z,1.91
2019-01-10T07:40:27.692Z,1.87
2019-01-10T07:42:57.546Z,1.87
2019-01-10T07:45:28.522Z,1.93
2019-01-10T07:47:57.773Z,1.90
2019-01-10T07:50:35.129Z,1.92
2019-01-10T07:53:06.181Z,1.92
2019-01-10T07:55:35.251Z,2.16
2019-01-10T07:58:04.346Z,2.16
2019-01-10T08:00:33.584Z,2.12
2019-01-10T08:03:02.901Z,2.04
2019-01-10T08:05:32.082Z,2.04
2019-01-10T08:08:01.231Z,1.99
2019-01-10T08:10:30.418Z,2.07
2019-01-10T08:12:59.664Z,2.03
2019-01-10T08:15:28.944Z,2.07
2019-01-10T08:17:58.053Z,2.06
2019-01-10T08:20:27.390Z,2.08
2019-01-10T08:22:56.642Z,2.07
2019-01-10T08:25:25.750Z,2.07
2019-01-10T08:27:54.966Z,2.07
2019-01-10T08:30:25.260Z,2.08
2019-01-10T08:32:54.490Z,2.08
2019-01-10T08:35:36.500Z,2.13
2019-01-10T08:38:05.625Z,2.13
2019-01-10T08:40:34.773Z,2.13
2019-01-10T08:43:04.363Z,2.23
2019-01-10T08:45:33.507Z,2.22
2019-01-10T08:48:03.127Z,2.25
2019-01-10T08:50:32.581Z,2.27
2019-01-10T08:53:01.883Z,2.29
2019-01-10T08:55:31.099Z,2.28
2019-01-10T08:58:00.349Z,2.25
2019-01-10T09:00:29.606Z,2.29
2019-01-10T09:03:00.588Z,2.36
2019-01-10T09:05:30.062Z,2.36
2019-01-10T09:07:59.271Z,2.31
2019-01-10T09:10:30.821Z,2.31
2019-01-10T09:12:59.923Z,2.33
2019-01-10T09:15:34.406Z,2.34
2019-01-10T09:18:00.098Z,2.34
2019-01-10T09:20:29.227Z,2.48
2019-01-10T09:22:58.429Z,2.47
2019-01-10T09:25:27.957Z,2.57
2019-01-10T09:27:57.019Z,2.57
2019-01-10T09:30:27.154Z,2.57
2019-01-10T09:32:56.227Z,2.54
2019-01-10T09:35:25.499Z,2.54
2019-01-10T09:37:54.762Z,2.54
2019-01-10T09:40:24.895Z,2.50
2019-01-10T09:42:54.183Z,2.52
2019-01-10T09:45:24.970Z,2.48
2019-01-10T09:47:54.613Z,2.50
2019-01-10T09:50:24.055Z,2.51
2019-01-10T09:52:54.065Z,2.47
2019-01-10T09:55:23.298Z,2.51
2019-01-10T09:57:52.355Z,2.54
2019-01-10T10:00:27.391Z,2.54
2019-01-10T10:02:56.800Z,2.54
2019-01-10T10:05:25.892Z,2.58
2019-01-10T10:07:54.993Z,2.58
2019-01-10T10:10:24.785Z,2.57
2019-01-10T10:12:53.928Z,2.61
2019-01-10T10:15:22.979Z,2.60
2019-01-10T10:17:52.082Z,2.57
2019-01-10T10:20:23.649Z,2.60
2019-01-10T10:22:52.712Z,2.65
2019-01-10T10:25:21.793Z,2.65
2019-01-10T10:27:51.027Z,2.68
2019-01-10T10:30:21.934Z,2.60
2019-01-10T10:32:51.197Z,2.60
2019-01-10T10:35:21.345Z,2.62
2019-01-10T10:37:50.877Z,2.62
2019-01-10T10:40:21.714Z,2.59
2019-01-10T10:42:51.963Z,2.55
2019-01-10T10:45:21.546Z,2.54
2019-01-10T10:47:50.705Z,2.58
2019-01-10T10:50:30.524Z,2.56
2019-01-10T10:52:59.819Z,2.56
2019-01-10T10:55:29.016Z,2.68
2019-01-10T10:57:58.098Z,2.72
2019-01-10T11:00:29.447Z,2.69
2019-01-10T11:02:58.815Z,2.69
2019-01-10T11:05:29.790Z,2.81
2019-01-10T11:07:58.902Z,2.81
2019-01-10T11:10:28.133Z,2.68
2019-01-10T11:12:57.326Z,2.68
2019-01-10T11:15:26.586Z,2.75
2019-01-10T11:17:55.791Z,2.68
2019-01-10T11:20:27.175Z,2.80
2019-01-10T11:22:56.648Z,2.80
2019-01-10T11:25:27.792Z,2.84
2019-01-10T11:27:57.436Z,2.84
2019-01-10T11:30:26.802Z,2.89
2019-01-10T11:32:56.058Z,2.87
2019-01-10T11:35:25.291Z,2.87
2019-01-10T11:37:54.387Z,2.80
2019-01-10T11:40:23.918Z,2.88
2019-01-10T11:42:53.725Z,2.83
2019-01-10T11:45:26.031Z,2.83
2019-01-10T11:47:55.126Z,2.89
2019-01-10T11:50:24.401Z,2.91
2019-01-10T11:52:53.579Z,2.91
2019-01-10T11:55:22.769Z,2.90
2019-01-10T11:57:52.260Z,3.04
2019-01-10T12:00:30.046Z,3.02
2019-01-10T12:03:00.274Z,3.06
2019-01-10T12:05:29.630Z,3.08
2019-01-10T12:07:58.745Z,3.02
2019-01-10T12:10:27.994Z,3.09
2019-01-10T12:12:57.269Z,3.07
2019-01-10T12:15:26.403Z,3.05
2019-01-10T12:17:55.484Z,3.05
2019-01-10T12:20:24.805Z,3.06
2019-01-10T12:22:54.057Z,3.10
2019-01-10T12:25:23.426Z,3.06
2019-01-10T12:27:52.622Z,3.06
2019-01-10T12:30:26.557Z,3.08
2019-01-10T12:32:55.916Z,3.08
2019-01-10T12:35:25.934Z,3.02
2019-01-10T12:37:55.237Z,3.07
2019-01-10T12:40:24.544Z,3.10
2019-01-10T12:42:53.630Z,3.07
2019-01-10T12:45:22.848Z,3.08
2019-01-10T12:47:52.140Z,3.08
2019-01-10T12:50:27.057Z,3.07
2019-01-10T12:52:56.371Z,3.08
2019-01-10T12:55:25.565Z,3.04
2019-01-10T12:57:54.929Z,3.00
2019-01-10T13:00:24.920Z,3.00
2019-01-10T13:02:55.154Z,3.08
2019-01-10T13:05:24.461Z,3.12
2019-01-10T13:08:03.139Z,3.12
2019-01-10T13:10:24.706Z,3.05
2019-01-10T13:12:54.136Z,3.02
2019-01-10T13:15:25.523Z,3.04
2019-01-10T13:17:54.596Z,3.02
2019-01-10T13:20:23.715Z,2.94
2019-01-10T13:22:52.880Z,2.96
2019-01-10T13:25:22.967Z,3.00
2019-01-10T13:27:54.240Z,2.97
2019-01-10T13:30:28.301Z,2.97
2019-01-10T13:32:58.045Z,3.09
2019-01-10T13:35:28.080Z,2.98
2019-01-10T13:37:57.398Z,2.98
2019-01-10T13:40:27.580Z,2.96
2019-01-10T13:42:56.726Z,2.96
2019-01-10T13:45:25.829Z,2.91
2019-01-10T13:47:55.036Z,2.92
2019-01-10T13:50:29.227Z,2.94
2019-01-10T13:52:58.395Z,2.91
2019-01-10T13:55:27.530Z,2.91
2019-01-10T13:57:56.676Z,2.99
2019-01-10T14:00:35.690Z,3.04
2019-01-10T14:03:04.225Z,3.04
2019-01-10T14:05:33.329Z,3.02
2019-01-10T14:08:02.393Z,3.12
2019-01-10T14:10:31.575Z,3.13
2019-01-10T14:13:00.773Z,3.23
2019-01-10T14:15:35.517Z,3.23
2019-01-10T14:18:06.045Z,3.28
2019-01-10T14:20:35.131Z,3.39
2019-01-10T14:23:04.629Z,3.39
2019-01-10T14:25:33.680Z,3.48
2019-01-10T14:28:03.770Z,3.48
2019-01-10T14:30:42.203Z,3.48
2019-01-10T14:33:12.933Z,3.41
2019-01-10T14:35:42.452Z,3.26
2019-01-10T14:38:11.962Z,3.26
2019-01-10T14:40:41.744Z,3.33
2019-01-10T14:43:10.929Z,3.28
2019-01-10T14:45:41.253Z,3.22
2019-01-10T14:48:10.355Z,3.22
2019-01-10T14:50:40.934Z,3.11
2019-01-10T14:53:10.265Z,3.06
2019-01-10T14:55:39.327Z,2.99
2019-01-10T14:58:08.406Z,3.08
2019-01-10T15:00:37.853Z,3.08
2019-01-10T15:03:09.714Z,3.04
2019-01-10T15:05:38.767Z,3.04
2019-01-10T15:08:07.878Z,3.03
2019-01-10T15:10:37.300Z,2.96
2019-01-10T15:13:06.488Z,2.93
2019-01-10T15:15:35.759Z,2.90
2019-01-10T15:18:04.965Z,2.79
2019-01-10T15:20:34.136Z,2.79
2019-01-10T15:23:03.242Z,2.83
2019-01-10T15:25:32.576Z,2.80
2019-01-10T15:28:01.942Z,2.80
2019-01-10T15:30:31.137Z,2.73
2019-01-10T15:33:00.272Z,2.72
2019-01-10T15:35:29.375Z,2.72
2019-01-10T15:37:58.748Z,2.77
2019-01-10T15:40:30.151Z,2.78
2019-01-10T15:43:01.155Z,2.78
2019-01-10T15:45:30.399Z,2.72
2019-01-10T15:47:59.591Z,2.75
2019-01-10T15:50:28.891Z,2.71
2019-01-10T15:52:58.072Z,2.72
2019-01-10T15:55:27.128Z,2.69
2019-01-10T15:57:56.450Z,2.69
2019-01-10T16:00:25.874Z,2.80
2019-01-10T16:02:54.963Z,2.80
2019-01-10T16:05:24.113Z,2.75
2019-01-10T16:07:53.186Z,2.74
2019-01-10T16:10:22.482Z,2.67
2019-01-10T16:12:51.751Z,2.69
2019-01-10T16:15:26.319Z,2.69
2019-01-10T16:17:55.433Z,2.64
2019-01-10T16:20:24.488Z,2.64
2019-01-10T16:22:53.588Z,2.59
2019-01-10T16:25:22.698Z,2.53
2019-01-10T16:27:52.055Z,2.57
2019-01-10T16:30:23.525Z,2.57
2019-01-10T16:32:52.610Z,2.57
2019-01-10T16:35:21.662Z,2.57
2019-01-10T16:37:51.004Z,2.54
2019-01-10T16:40:20.328Z,2.55
2019-01-10T16:42:49.711Z,2.57
2019-01-10T16:45:21.487Z,2.57
2019-01-10T16:47:50.645Z,2.51
2019-01-10T16:50:19.761Z,2.49
2019-01-10T16:52:49.201Z,2.49
2019-01-10T16:55:18.598Z,2.52
2019-01-10T16:57:47.864Z,2.52
2019-01-10T17:00:23.795Z,2.53
2019-01-10T17:02:53.018Z,2.58
2019-01-10T17:05:22.457Z,2.50
2019-01-10T17:07:53.883Z,2.49
2019-01-10T17:10:23.351Z,2.49
2019-01-10T17:12:52.751Z,2.46
2019-01-10T17:15:22.078Z,2.43
2019-01-10T17:17:51.248Z,2.39
2019-01-10T17:20:21.987Z,2.31
2019-01-10T17:22:51.251Z,2.31
2019-01-10T17:25:26.647Z,2.35
2019-01-10T17:27:55.884Z,2.30
2019-01-10T17:30:27.636Z,2.30
2019-01-10T17:32:56.968Z,2.27
2019-01-10T17:35:31.334Z,2.30
2019-01-10T17:38:00.612Z,2.30
2019-01-10T17:40:29.722Z,2.28
2019-01-10T17:42:59.319Z,2.25
2019-01-10T17:45:34.445Z,2.27
2019-01-10T17:48:04.339Z,2.20
2019-01-10T17:50:33.505Z,2.20
2019-01-10T17:53:02.622Z,2.18
2019-01-10T17:55:32.395Z,2.18
2019-01-10T17:58:01.755Z,2.20
2019-01-10T18:00:32.303Z,2.18
2019-01-10T18:03:03.991Z,2.18
2019-01-10T18:05:33.627Z,2.15
2019-01-10T18:08:03.832Z,2.14
2019-01-10T18:10:33.243Z,2.14
2019-01-10T18:13:02.385Z,2.21
2019-01-10T18:15:32.885Z,2.16
2019-01-10T18:18:02.041Z,2.16
2019-01-10T18:20:37.001Z,2.13
2019-01-10T18:23:07.145Z,2.10
2019-01-10T18:25:36.344Z,2.07
2019-01-10T18:28:06.246Z,2.06
2019-01-10T18:30:35.651Z,2.03
2019-01-10T18:33:05.144Z,2.03
2019-01-10T18:35:34.366Z,2.00
2019-01-10T18:38:03.979Z,1.99
2019-01-10T18:40:33.507Z,1.94
2019-01-10T18:43:02.738Z,1.94
2019-01-10T18:45:35.463Z,1.88
2019-01-10T18:48:06.304Z,1.87
2019-01-10T18:50:35.879Z,1.85
2019-01-10T18:53:06.146Z,1.83
2019-01-10T18:55:35.528Z,1.83
2019-01-10T18:58:04.809Z,1.92
2019-01-10T19:00:33.966Z,1.94
2019-01-10T19:03:03.354Z,1.94
2019-01-10T19:05:35.594Z,1.91
2019-01-10T19:08:08.187Z,1.93
2019-01-10T19:10:38.267Z,1.95
2019-01-10T19:13:07.372Z,1.87
2019-01-10T19:15:37.310Z,1.87
2019-01-10T19:18:07.607Z,1.82
2019-01-10T19:20:37.659Z,1.80
2019-01-10T19:23:07.544Z,1.74
2019-01-10T19:25:37.014Z,1.74
2019-01-10T19:28:07.082Z,1.71
2019-01-10T19:30:38.650Z,1.65
2019-01-10T19:33:11.130Z,1.65
2019-01-10T19:35:40.728Z,1.59
2019-01-10T19:38:09.883Z,1.56
2019-01-10T19:40:40.207Z,1.56
2019-01-10T19:43:09.365Z,1.56
2019-01-10T19:45:38.919Z,1.56
2019-01-10T19:48:09.785Z,1.54
2019-01-10T19:50:39.383Z,1.54
2019-01-10T19:53:09.110Z,1.56
2019-01-10T19:55:38.969Z,1.55
2019-01-10T19:58:08.417Z,1.55
2019-01-10T20:00:40.486Z,1.51
2019-01-10T20:03:09.933Z,1.54
2019-01-10T20:05:40.101Z,1.54
2019-01-10T20:08:09.500Z,1.54
2019-01-10T20:10:38.987Z,1.50
2019-01-10T20:13:09.020Z,1.52
2019-01-10T20:15:38.215Z,1.52
2019-01-10T20:18:16.264Z,1.57
2019-01-10T20:20:42.813Z,1.57
2019-01-10T20:23:14.754Z,1.67
2019-01-10T20:25:44.361Z,1.67
2019-01-10T20:28:13.868Z,1.63
2019-01-10T20:30:43.190Z,1.64
2019-01-10T20:33:13.543Z,1.64
2019-01-10T20:35:42.927Z,1.66
2019-01-10T20:38:12.578Z,1.70
2019-01-10T20:40:41.857Z,1.59
2019-01-10T20:43:11.013Z,1.64
2019-01-10T20:45:40.270Z,1.67
2019-01-10T20:48:09.465Z,1.67
2019-01-10T20:50:39.596Z,1.80
2019-01-10T20:53:09.645Z,1.73
2019-01-10T20:55:39.161Z,1.70
2019-01-10T20:58:08.617Z,1.71
2019-01-10T21:00:37.771Z,1.74
2019-01-10T21:03:07.361Z,1.74
2019-01-10T21:05:37.032Z,1.73
2019-01-10T21:08:06.204Z,1.65
2019-01-10T21:10:35.628Z,1.65
2019-01-10T21:13:04.997Z,1.64
2019-01-10T21:15:34.260Z,1.66
2019-01-10T21:18:03.406Z,1.66
2019-01-10T21:20:32.753Z,1.65
2019-01-10T21:23:02.341Z,1.67
2019-01-10T21:25:31.743Z,1.66
2019-01-10T21:28:00.868Z,1.62
2019-01-10T21:30:30.166Z,1.60
2019-01-10T21:32:59.327Z,1.61
2019-01-10T21:35:28.537Z,1.55
2019-01-10T21:37:58.022Z,1.57
2019-01-10T21:40:28.624Z,1.57
2019-01-10T21:42:58.125Z,1.51
2019-01-10T21:45:27.537Z,1.44
2019-01-10T21:47:56.676Z,1.34
2019-01-10T21:50:27.204Z,1.34
2019-01-10T21:52:57.109Z,1.30
2019-01-10T21:55:26.366Z,1.24
2019-01-10T21:57:55.698Z,1.28
2019-01-10T22:00:31.646Z,1.08
2019-01-10T22:03:02.161Z,1.08
2019-01-10T22:05:31.320Z,0.98
2019-01-10T22:08:02.049Z,0.95
2019-01-10T22:10:31.799Z,0.90
2019-01-10T22:13:00.932Z,0.84
2019-01-10T22:15:30.147Z,0.82
2019-01-10T22:17:59.309Z,0.77
2019-01-10T22:20:28.445Z,0.69
2019-01-10T22:22:57.562Z,0.64
2019-01-10T22:25:26.798Z,0.61
2019-01-10T22:27:57.327Z,-0.22
2019-01-10T22:30:27.990Z,0.37
2019-01-10T22:32:57.256Z,0.37
2019-01-10T22:35:28.295Z,0.29
2019-01-10T22:37:57.777Z,0.22
2019-01-10T22:40:27.120Z,0.21
2019-01-10T22:42:56.519Z,0.17
2019-01-10T22:45:26.648Z,0.20
2019-01-10T22:47:56.042Z,0.14
2019-01-10T22:50:25.492Z,0.06
2019-01-10T22:52:54.741Z,0.02
2019-01-10T22:55:24.163Z,0.03
2019-01-10T22:57:53.464Z,0.00
2019-01-10T23:01:14.776Z,0.00
2019-01-10T23:03:44.953Z,-0.04
2019-01-10T23:06:14.614Z,-0.08
2019-01-10T23:08:45.760Z,-0.05
2019-01-10T23:11:22.392Z,-0.08
2019-01-10T23:14:05.986Z,-0.04
2019-01-10T23:16:37.103Z,-0.04
2019-01-10T23:19:07.093Z,-0.05
2019-01-10T23:21:38.355Z,-0.07
2019-01-10T23:24:09.718Z,-0.04
2019-01-10T23:26:39.004Z,-0.05
2019-01-10T23:29:08.113Z,-0.05
2019-01-10T23:31:37.465Z,-0.05
2019-01-10T23:34:09.212Z,-0.02
2019-01-10T23:36:40.190Z,-0.02
2019-01-10T23:39:19.103Z,0.01
2019-01-10T23:41:48.950Z,-0.02
2019-01-10T23:44:18.698Z,-0.02
2019-01-10T23:46:47.983Z,0.00
2019-01-10T23:49:17.383Z,0.04
2019-01-10T23:51:46.964Z,0.06
2019-01-10T23:54:16.246Z,0.00
2019-01-10T23:56:45.374Z,0.00
2019-01-10T23:59:14.474Z,0.01
